Main page
METAR-TAF:

METAR-TAF

Airports :

Exeter, England

Exeter Airport

latitude: 50-44N, longitude: 003-25W, elevation: 30 m

Current weather observation

The report was made 27 minutes ago, at 08:50 UTC
Wind 11 kt from the South/Southwest
Temperature 12°C
Humidity 94%
Pressure 1020 hPa
Visibility 10 km or more
Broken clouds at a height of 800 ft

METAR: EGTE 290850Z 21011KT 9999 BKN008 12/11 Q1020

Time: 10:17 (09:17 UTC)

Forecast

The report was made 1 hour and 14 minutes ago, at 08:03 UTC
Forecast valid from 29 at 09 UTC to 29 at 18 UTC
Wind 12 kt from the South/Southwest
Visibility 10 km or more
Broken clouds at a height of 1200 ft
Temporary
from 29 at 09 UTC to 29 at 11 UTC
Visibility: 7000 m
Broken clouds at a height of 800 ft
rain
Becoming
from 29 at 11 UTC to 29 at 14 UTC
Broken clouds at a height of 1600 ft

TAF: EGTE 290803Z 2909/2918 20012KT 9999 BKN012 TEMPO 2909/2911 7000 RA BKN008 BECMG 2911/2914 BKN016

Weather observations and forecasts of more than 4000 airports (METAR and TAF reports).

The available stations are represented by yellow and red dots on the map.

Hover mouse over dot to see the name of the station.

Then click to see weather observations and forecasts.

To change the map : click on the green buttons with a black cross to zoom in, on the green button with a dash to zoom out, or on the green arrows for adjacent maps.


METAR-TAF: